ADDS TAF Board (Experimental) INFO Settings
IDs: Format: Expanded Condensed

KIAD - Washington/Dulles In, VA, US

Issued at 1434 UTC 03 Jul 2015
Updated at: 1717 UTC 03 Jul 2015
Time1652Z 03/18Z 03/19Z 03/20Z 03/21Z 03/22Z 03/23Z 04/00Z 04/01Z 04/02Z 04/03Z 04/04Z 04/05Z 04/06Z
Type OBS PRVL PRVL PRVL PRVL PRVL PRVL PRVL PRVL PRVL PRVL PRVL PRVL PRVL
VIS 10 >6 >6 >6 >6 >6 >6 >6 >6 >6 >6 3 3 3
CIG -- 140 140 140 60 60 60 60 50 50 50 40 40 40
Cover SCT BKN BKN BKN OVC OVC OVC OVC OVC OVC OVC OVC OVC OVC
FltCat VFR VFR VFR VFR VFR VFR VFR VFR VFR VFR VFR MVFR MVFR MVFR
WX -- -- -- -- -- -- -- -- -SHRA -SHRA -SHRA -SHRA BR -SHRA BR -SHRA BR
WDir 150 130 130 130 150 150 150 150 130 130 130 130 130 130
WSpd 8 4 4 4 8 8 8 8 6 6 6 7 7 7
WGst -- -- -- -- -- -- -- -- -- -- -- -- -- --
R01/19
XWnd -4 -3 -3 -3 -4 -4 -4 -4 -5 -5 -5 -5 -5 -5
HWnd -7 -3 -3 -3 -7 -7 -7 -7 -4 -4 -4 -4 -4 -4
R12/30
XWnd -5 -1 -1 -1 -5 -5 -5 -5 -2 -2 -2 -2 -2 -2
HWnd 6 4 4 4 6 6 6 6 6 6 6 7 7 7

NOTE: TEMPO conditions in [brackets]. Keep in mind TEMPO conditions might be better (lower impact) than prevailing conditions.

Raw TAF
KIAD 031434Z 0315/0418 13004KT P6SM SCT050 BKN140
  FM032100 15008KT P6SM SCT050 OVC060
  FM040100 13006KT P6SM -SHRA OVC050
  FM040400 13007KT 3SM -SHRA BR OVC040
  FM041400 30005KT 5SM -SHRA BR OVC015


Raw METAR
KIAD 031652Z 15008KT 10SM SCT035 25/17 A2999 RMK AO2 SLP155 T02500167
KIAD 031552Z VRB05KT 10SM SCT036 24/17 A3000 RMK AO2 SLP156 TCU OHD T02440167
KIAD 031452Z 12006KT 10SM FEW028 SCT036 BKN250 24/17 A3000 RMK AO2 SLP156 T02390172 50006

METAR Board
Radar Display
Forecast Discussion

TAF Board Legend

Potential Impact
Threat None Slight Moderate High
Visibility (sm) ≥5.1 5.1>X≥3 3>X≥1 <1
Ceiling (100 ft) ≥30.1 30.1>X≥10 10>X≥5 <5
Wind Speed (kt) <10 10≤X<20 20≤X<30 ≥30
Wind Gust (kt) <15 15≤X<25 25≤X<35 ≥35
Weather No Wx Reported VCTS,-TS,-FZRA,SN TS,FZRA +TS,+FZRA,+SN